sensor_id;sensor_type;location;lat;lon;timestamp;temperature;humidity
41678;DHT22;27364;49.026;8.712;2022-09-27T00:00:57;11.50;99.90
41678;DHT22;27364;49.026;8.712;2022-09-27T00:03:23;11.50;99.90
41678;DHT22;27364;49.026;8.712;2022-09-27T00:05:48;11.50;99.90
41678;DHT22;27364;49.026;8.712;2022-09-27T00:08:14;11.50;99.90
41678;DHT22;27364;49.026;8.712;2022-09-27T00:10:39;11.60;99.90
41678;DHT22;27364;49.026;8.712;2022-09-27T00:13:04;11.50;99.90
41678;DHT22;27364;49.026;8.712;2022-09-27T00:15:30;11.50;99.90
41678;DHT22;27364;49.026;8.712;2022-09-27T00:17:55;11.50;99.90
41678;DHT22;27364;49.026;8.712;2022-09-27T00:20:21;11.40;99.90
41678;DHT22;27364;49.026;8.712;2022-09-27T00:22:47;11.40;99.90
41678;DHT22;27364;49.026;8.712;2022-09-27T00:25:13;11.50;99.90
41678;DHT22;27364;49.026;8.712;2022-09-27T00:27:39;11.50;99.90
41678;DHT22;27364;49.026;8.712;2022-09-27T00:30:04;11.50;99.90
41678;DHT22;27364;49.026;8.712;2022-09-27T00:32:30;11.50;99.90
41678;DHT22;27364;49.026;8.712;2022-09-27T00:34:55;11.50;99.90
41678;DHT22;27364;49.026;8.712;2022-09-27T00:37:21;11.50;99.90
41678;DHT22;27364;49.026;8.712;2022-09-27T00:39:46;11.40;99.90
41678;DHT22;27364;49.026;8.712;2022-09-27T00:42:12;11.50;99.90
41678;DHT22;27364;49.026;8.712;2022-09-27T00:49:34;11.50;99.90
41678;DHT22;27364;49.026;8.712;2022-09-27T00:52:03;11.40;99.90
41678;DHT22;27364;49.026;8.712;2022-09-27T00:54:29;11.50;99.90
41678;DHT22;27364;49.026;8.712;2022-09-27T00:56:55;11.50;99.90
41678;DHT22;27364;49.026;8.712;2022-09-27T00:59:23;11.40;99.90
41678;DHT22;27364;49.026;8.712;2022-09-27T01:01:50;11.50;99.90
41678;DHT22;27364;49.026;8.712;2022-09-27T01:04:17;11.50;99.90
41678;DHT22;27364;49.026;8.712;2022-09-27T01:06:47;11.40;99.90
41678;DHT22;27364;49.026;8.712;2022-09-27T01:09:12;11.40;99.90
41678;DHT22;27364;49.026;8.712;2022-09-27T01:11:45;11.40;99.90
41678;DHT22;27364;49.026;8.712;2022-09-27T01:25:18;11.40;99.90
41678;DHT22;27364;49.026;8.712;2022-09-27T01:35:35;11.30;99.90
41678;DHT22;27364;49.026;8.712;2022-09-27T01:40:58;11.40;99.90
41678;DHT22;27364;49.026;8.712;2022-09-27T01:43:33;11.40;99.90
41678;DHT22;27364;49.026;8.712;2022-09-27T01:46:02;11.30;99.90
41678;DHT22;27364;49.026;8.712;2022-09-27T01:48:30;11.30;99.90
41678;DHT22;27364;49.026;8.712;2022-09-27T01:50:58;11.20;99.90
41678;DHT22;27364;49.026;8.712;2022-09-27T01:53:30;11.20;99.90
41678;DHT22;27364;49.026;8.712;2022-09-27T01:55:57;11.20;99.90
41678;DHT22;27364;49.026;8.712;2022-09-27T01:58:28;11.10;99.90
41678;DHT22;27364;49.026;8.712;2022-09-27T02:00:55;11.10;99.90
41678;DHT22;27364;49.026;8.712;2022-09-27T02:03:25;11.10;99.90
41678;DHT22;27364;49.026;8.712;2022-09-27T02:05:54;11.10;99.90
41678;DHT22;27364;49.026;8.712;2022-09-27T02:08:22;10.90;99.90
41678;DHT22;27364;49.026;8.712;2022-09-27T02:10:50;10.90;99.90
41678;DHT22;27364;49.026;8.712;2022-09-27T02:15:56;10.90;99.90
41678;DHT22;27364;49.026;8.712;2022-09-27T02:18:24;10.90;99.90
41678;DHT22;27364;49.026;8.712;2022-09-27T02:20:54;10.90;99.90
41678;DHT22;27364;49.026;8.712;2022-09-27T02:25:59;10.90;99.90
41678;DHT22;27364;49.026;8.712;2022-09-27T02:28:27;10.90;99.90
41678;DHT22;27364;49.026;8.712;2022-09-27T02:30:55;10.90;99.90
41678;DHT22;27364;49.026;8.712;2022-09-27T02:33:28;10.80;99.90
41678;DHT22;27364;49.026;8.712;2022-09-27T02:35:56;10.80;99.90
41678;DHT22;27364;49.026;8.712;2022-09-27T02:38:22;10.80;99.90
41678;DHT22;27364;49.026;8.712;2022-09-27T02:40:48;10.80;99.90
41678;DHT22;27364;49.026;8.712;2022-09-27T02:43:14;10.80;99.90
41678;DHT22;27364;49.026;8.712;2022-09-27T02:53:46;10.80;99.90
41678;DHT22;27364;49.026;8.712;2022-09-27T03:01:26;10.80;99.90
41678;DHT22;27364;49.026;8.712;2022-09-27T03:04:01;10.80;99.90
41678;DHT22;27364;49.026;8.712;2022-09-27T03:06:29;10.80;99.90
41678;DHT22;27364;49.026;8.712;2022-09-27T03:08:55;10.70;99.90
41678;DHT22;27364;49.026;8.712;2022-09-27T03:11:21;10.80;99.90
41678;DHT22;27364;49.026;8.712;2022-09-27T03:13:46;10.80;99.90
41678;DHT22;27364;49.026;8.712;2022-09-27T03:16:12;10.80;99.90
41678;DHT22;27364;49.026;8.712;2022-09-27T03:18:38;10.80;99.90
41678;DHT22;27364;49.026;8.712;2022-09-27T03:21:03;10.80;99.90
41678;DHT22;27364;49.026;8.712;2022-09-27T03:23:29;10.80;99.90
41678;DHT22;27364;49.026;8.712;2022-09-27T03:25:54;10.80;99.90
41678;DHT22;27364;49.026;8.712;2022-09-27T03:28:20;10.80;99.90
41678;DHT22;27364;49.026;8.712;2022-09-27T03:30:46;10.80;99.90
41678;DHT22;27364;49.026;8.712;2022-09-27T03:33:12;10.70;99.90
41678;DHT22;27364;49.026;8.712;2022-09-27T03:35:37;10.70;99.90
41678;DHT22;27364;49.026;8.712;2022-09-27T03:38:03;10.70;99.90
41678;DHT22;27364;49.026;8.712;2022-09-27T03:40:31;10.80;99.90
41678;DHT22;27364;49.026;8.712;2022-09-27T03:42:58;10.80;99.90
41678;DHT22;27364;49.026;8.712;2022-09-27T03:45:25;10.80;99.90
41678;DHT22;27364;49.026;8.712;2022-09-27T03:47:51;10.80;99.90
41678;DHT22;27364;49.026;8.712;2022-09-27T03:50:16;10.80;99.90
41678;DHT22;27364;49.026;8.712;2022-09-27T03:52:42;10.80;99.90
41678;DHT22;27364;49.026;8.712;2022-09-27T03:55:08;10.80;99.90
41678;DHT22;27364;49.026;8.712;2022-09-27T03:57:33;10.70;99.90
41678;DHT22;27364;49.026;8.712;2022-09-27T03:59:59;10.70;99.90
41678;DHT22;27364;49.026;8.712;2022-09-27T04:02:28;10.70;99.90
41678;DHT22;27364;49.026;8.712;2022-09-27T04:04:53;10.80;99.90
41678;DHT22;27364;49.026;8.712;2022-09-27T04:07:19;10.70;99.90
41678;DHT22;27364;49.026;8.712;2022-09-27T04:09:45;10.70;99.90
41678;DHT22;27364;49.026;8.712;2022-09-27T04:12:11;10.60;99.90
41678;DHT22;27364;49.026;8.712;2022-09-27T04:14:37;10.70;99.90
41678;DHT22;27364;49.026;8.712;2022-09-27T04:17:02;10.70;99.90
41678;DHT22;27364;49.026;8.712;2022-09-27T04:19:27;10.70;99.90
41678;DHT22;27364;49.026;8.712;2022-09-27T04:21:53;10.70;99.90
41678;DHT22;27364;49.026;8.712;2022-09-27T04:24:18;10.80;99.90
41678;DHT22;27364;49.026;8.712;2022-09-27T04:26:44;10.70;99.90
41678;DHT22;27364;49.026;8.712;2022-09-27T04:29:09;10.80;99.90
41678;DHT22;27364;49.026;8.712;2022-09-27T04:31:35;10.80;99.90
41678;DHT22;27364;49.026;8.712;2022-09-27T04:34:03;10.70;99.90
41678;DHT22;27364;49.026;8.712;2022-09-27T04:36:28;10.60;99.90
41678;DHT22;27364;49.026;8.712;2022-09-27T04:38:54;10.70;99.90
41678;DHT22;27364;49.026;8.712;2022-09-27T04:41:23;10.70;99.90
41678;DHT22;27364;49.026;8.712;2022-09-27T04:43:50;10.60;99.90
41678;DHT22;27364;49.026;8.712;2022-09-27T04:46:15;10.70;99.90
41678;DHT22;27364;49.026;8.712;2022-09-27T04:48:41;10.60;99.90
41678;DHT22;27364;49.026;8.712;2022-09-27T04:51:06;10.60;99.90
41678;DHT22;27364;49.026;8.712;2022-09-27T04:53:33;10.70;99.90
41678;DHT22;27364;49.026;8.712;2022-09-27T04:55:58;10.70;99.90
41678;DHT22;27364;49.026;8.712;2022-09-27T04:58:30;10.60;99.90
41678;DHT22;27364;49.026;8.712;2022-09-27T05:00:57;10.60;99.90
41678;DHT22;27364;49.026;8.712;2022-09-27T05:03:22;10.60;99.90
41678;DHT22;27364;49.026;8.712;2022-09-27T05:05:49;10.50;99.90
41678;DHT22;27364;49.026;8.712;2022-09-27T05:08:16;10.50;99.90
41678;DHT22;27364;49.026;8.712;2022-09-27T05:10:42;10.40;99.90
41678;DHT22;27364;49.026;8.712;2022-09-27T05:13:07;10.50;99.90
41678;DHT22;27364;49.026;8.712;2022-09-27T05:15:33;10.50;99.90
41678;DHT22;27364;49.026;8.712;2022-09-27T05:17:59;10.50;99.90
41678;DHT22;27364;49.026;8.712;2022-09-27T05:20:24;10.50;99.90
41678;DHT22;27364;49.026;8.712;2022-09-27T05:22:50;10.50;99.90
41678;DHT22;27364;49.026;8.712;2022-09-27T05:25:15;10.60;99.90
41678;DHT22;27364;49.026;8.712;2022-09-27T05:27:41;10.60;99.90
41678;DHT22;27364;49.026;8.712;2022-09-27T05:30:06;10.60;99.90
41678;DHT22;27364;49.026;8.712;2022-09-27T05:32:32;10.60;99.90
41678;DHT22;27364;49.026;8.712;2022-09-27T05:34:58;10.50;99.90
41678;DHT22;27364;49.026;8.712;2022-09-27T05:37:24;10.40;99.90
41678;DHT22;27364;49.026;8.712;2022-09-27T05:39:49;10.40;99.90
41678;DHT22;27364;49.026;8.712;2022-09-27T05:42:15;10.40;99.90
41678;DHT22;27364;49.026;8.712;2022-09-27T05:44:41;10.50;99.90
41678;DHT22;27364;49.026;8.712;2022-09-27T05:47:11;10.60;99.90
41678;DHT22;27364;49.026;8.712;2022-09-27T05:49:36;10.60;99.90
41678;DHT22;27364;49.026;8.712;2022-09-27T05:52:03;10.50;99.90
41678;DHT22;27364;49.026;8.712;2022-09-27T05:54:29;10.50;99.90
41678;DHT22;27364;49.026;8.712;2022-09-27T05:56:55;10.50;99.90
41678;DHT22;27364;49.026;8.712;2022-09-27T05:59:23;10.50;99.90
41678;DHT22;27364;49.026;8.712;2022-09-27T06:01:50;10.50;99.90
41678;DHT22;27364;49.026;8.712;2022-09-27T06:04:16;10.50;99.90
41678;DHT22;27364;49.026;8.712;2022-09-27T06:06:41;10.50;99.90
41678;DHT22;27364;49.026;8.712;2022-09-27T06:09:10;10.60;99.90
41678;DHT22;27364;49.026;8.712;2022-09-27T06:11:36;10.60;99.90
41678;DHT22;27364;49.026;8.712;2022-09-27T06:14:01;10.50;99.90
41678;DHT22;27364;49.026;8.712;2022-09-27T06:16:27;10.60;99.90
41678;DHT22;27364;49.026;8.712;2022-09-27T06:18:52;10.50;99.90
41678;DHT22;27364;49.026;8.712;2022-09-27T06:21:18;10.60;99.90
41678;DHT22;27364;49.026;8.712;2022-09-27T06:23:44;10.50;99.90
41678;DHT22;27364;49.026;8.712;2022-09-27T06:26:09;10.50;99.90
41678;DHT22;27364;49.026;8.712;2022-09-27T06:28:35;10.40;99.90
41678;DHT22;27364;49.026;8.712;2022-09-27T06:31:01;10.50;99.90
41678;DHT22;27364;49.026;8.712;2022-09-27T06:33:29;10.50;99.90
41678;DHT22;27364;49.026;8.712;2022-09-27T06:35:55;10.40;99.90
41678;DHT22;27364;49.026;8.712;2022-09-27T06:38:21;10.40;99.90
41678;DHT22;27364;49.026;8.712;2022-09-27T06:40:47;10.40;99.90
41678;DHT22;27364;49.026;8.712;2022-09-27T06:43:14;10.50;99.90
41678;DHT22;27364;49.026;8.712;2022-09-27T06:45:40;10.50;99.90
41678;DHT22;27364;49.026;8.712;2022-09-27T06:48:06;10.40;99.90
41678;DHT22;27364;49.026;8.712;2022-09-27T06:50:32;10.50;99.90
41678;DHT22;27364;49.026;8.712;2022-09-27T06:52:58;10.40;99.90
41678;DHT22;27364;49.026;8.712;2022-09-27T06:55:24;10.40;99.90
41678;DHT22;27364;49.026;8.712;2022-09-27T06:57:53;10.40;99.90
41678;DHT22;27364;49.026;8.712;2022-09-27T07:00:37;10.30;99.90
41678;DHT22;27364;49.026;8.712;2022-09-27T07:03:02;10.30;99.90
41678;DHT22;27364;49.026;8.712;2022-09-27T07:05:28;10.30;99.90
41678;DHT22;27364;49.026;8.712;2022-09-27T07:07:54;10.30;99.90
41678;DHT22;27364;49.026;8.712;2022-09-27T07:10:26;10.30;99.90
41678;DHT22;27364;49.026;8.712;2022-09-27T07:12:52;10.30;99.90
41678;DHT22;27364;49.026;8.712;2022-09-27T07:15:18;10.30;99.90
41678;DHT22;27364;49.026;8.712;2022-09-27T07:17:54;10.40;99.90
41678;DHT22;27364;49.026;8.712;2022-09-27T07:20:20;10.40;99.90
41678;DHT22;27364;49.026;8.712;2022-09-27T07:22:45;10.30;99.90
41678;DHT22;27364;49.026;8.712;2022-09-27T07:25:11;10.30;99.90
41678;DHT22;27364;49.026;8.712;2022-09-27T07:27:37;10.40;99.90
41678;DHT22;27364;49.026;8.712;2022-09-27T07:30:03;10.40;99.90
41678;DHT22;27364;49.026;8.712;2022-09-27T07:32:29;10.40;99.90
41678;DHT22;27364;49.026;8.712;2022-09-27T07:34:54;10.30;99.90
41678;DHT22;27364;49.026;8.712;2022-09-27T07:37:20;10.40;99.90
41678;DHT22;27364;49.026;8.712;2022-09-27T07:39:45;10.40;99.90
41678;DHT22;27364;49.026;8.712;2022-09-27T07:42:13;10.40;99.90
41678;DHT22;27364;49.026;8.712;2022-09-27T07:44:38;10.40;99.90
41678;DHT22;27364;49.026;8.712;2022-09-27T07:47:07;10.40;99.90
41678;DHT22;27364;49.026;8.712;2022-09-27T07:49:32;10.50;99.90
41678;DHT22;27364;49.026;8.712;2022-09-27T07:51:58;10.60;99.90
41678;DHT22;27364;49.026;8.712;2022-09-27T07:54:23;10.60;99.90
41678;DHT22;27364;49.026;8.712;2022-09-27T07:56:49;10.60;99.90
41678;DHT22;27364;49.026;8.712;2022-09-27T07:59:14;10.70;99.90
41678;DHT22;27364;49.026;8.712;2022-09-27T08:01:41;10.70;99.90
41678;DHT22;27364;49.026;8.712;2022-09-27T08:04:06;10.80;99.90
41678;DHT22;27364;49.026;8.712;2022-09-27T08:06:32;10.80;99.90
41678;DHT22;27364;49.026;8.712;2022-09-27T08:08:57;10.90;99.90
41678;DHT22;27364;49.026;8.712;2022-09-27T08:11:23;10.90;99.90
41678;DHT22;27364;49.026;8.712;2022-09-27T08:13:49;10.80;99.90
41678;DHT22;27364;49.026;8.712;2022-09-27T08:16:16;10.90;99.90
41678;DHT22;27364;49.026;8.712;2022-09-27T08:18:42;10.80;99.90
41678;DHT22;27364;49.026;8.712;2022-09-27T08:21:07;10.90;99.90
41678;DHT22;27364;49.026;8.712;2022-09-27T08:23:33;11.00;99.90
41678;DHT22;27364;49.026;8.712;2022-09-27T08:25:58;11.00;99.90
41678;DHT22;27364;49.026;8.712;2022-09-27T08:28:25;11.10;99.90
41678;DHT22;27364;49.026;8.712;2022-09-27T08:30:51;11.00;99.90
41678;DHT22;27364;49.026;8.712;2022-09-27T08:33:17;11.00;99.90
41678;DHT22;27364;49.026;8.712;2022-09-27T08:35:42;11.00;99.90
41678;DHT22;27364;49.026;8.712;2022-09-27T08:38:08;11.00;99.90
41678;DHT22;27364;49.026;8.712;2022-09-27T08:41:23;11.00;99.90
41678;DHT22;27364;49.026;8.712;2022-09-27T08:48:29;11.10;99.90
41678;DHT22;27364;49.026;8.712;2022-09-27T08:50:56;11.20;99.90
41678;DHT22;27364;49.026;8.712;2022-09-27T08:53:22;11.30;99.90
41678;DHT22;27364;49.026;8.712;2022-09-27T08:55:50;11.30;99.90
41678;DHT22;27364;49.026;8.712;2022-09-27T09:00:52;11.30;99.90
41678;DHT22;27364;49.026;8.712;2022-09-27T09:03:20;11.40;99.90
41678;DHT22;27364;49.026;8.712;2022-09-27T09:05:51;11.50;99.90
41678;DHT22;27364;49.026;8.712;2022-09-27T09:24:37;12.30;99.90
41678;DHT22;27364;49.026;8.712;2022-09-27T09:34:41;12.30;99.90
41678;DHT22;27364;49.026;8.712;2022-09-27T09:37:12;12.50;99.90
41678;DHT22;27364;49.026;8.712;2022-09-27T09:39:42;12.40;99.90
41678;DHT22;27364;49.026;8.712;2022-09-27T09:47:03;12.30;99.90
41678;DHT22;27364;49.026;8.712;2022-09-27T09:49:36;12.60;99.90
41678;DHT22;27364;49.026;8.712;2022-09-27T09:52:10;12.60;99.90
41678;DHT22;27364;49.026;8.712;2022-09-27T09:55:23;12.80;99.90
41678;DHT22;27364;49.026;8.712;2022-09-27T09:57:32;12.60;99.90
41678;DHT22;27364;49.026;8.712;2022-09-27T09:59:58;12.60;99.90
41678;DHT22;27364;49.026;8.712;2022-09-27T10:02:33;12.60;99.90
41678;DHT22;27364;49.026;8.712;2022-09-27T10:04:59;12.70;99.90
41678;DHT22;27364;49.026;8.712;2022-09-27T10:07:25;12.70;99.90
41678;DHT22;27364;49.026;8.712;2022-09-27T10:09:51;12.70;99.90
41678;DHT22;27364;49.026;8.712;2022-09-27T10:12:17;12.50;99.90
41678;DHT22;27364;49.026;8.712;2022-09-27T10:14:44;12.30;99.90
41678;DHT22;27364;49.026;8.712;2022-09-27T10:17:11;12.10;99.90
41678;DHT22;27364;49.026;8.712;2022-09-27T10:19:41;12.10;99.90
41678;DHT22;27364;49.026;8.712;2022-09-27T10:22:16;11.90;99.90
41678;DHT22;27364;49.026;8.712;2022-09-27T10:24:56;11.70;99.90
41678;DHT22;27364;49.026;8.712;2022-09-27T10:27:22;11.60;99.90
41678;DHT22;27364;49.026;8.712;2022-09-27T10:29:55;11.50;99.90
41678;DHT22;27364;49.026;8.712;2022-09-27T10:32:22;11.50;99.90
41678;DHT22;27364;49.026;8.712;2022-09-27T10:34:48;11.40;99.90
41678;DHT22;27364;49.026;8.712;2022-09-27T10:37:20;11.40;99.90
41678;DHT22;27364;49.026;8.712;2022-09-27T10:39:46;11.40;99.90
41678;DHT22;27364;49.026;8.712;2022-09-27T10:42:30;11.40;99.90
41678;DHT22;27364;49.026;8.712;2022-09-27T10:44:56;11.60;99.90
41678;DHT22;27364;49.026;8.712;2022-09-27T10:47:22;11.70;99.90
41678;DHT22;27364;49.026;8.712;2022-09-27T10:49:49;11.70;99.90
41678;DHT22;27364;49.026;8.712;2022-09-27T10:52:21;11.60;99.90
41678;DHT22;27364;49.026;8.712;2022-09-27T10:54:52;11.60;99.90
41678;DHT22;27364;49.026;8.712;2022-09-27T10:59:46;11.50;99.90
41678;DHT22;27364;49.026;8.712;2022-09-27T11:02:18;11.40;99.90
41678;DHT22;27364;49.026;8.712;2022-09-27T11:04:55;11.40;99.90
41678;DHT22;27364;49.026;8.712;2022-09-27T11:07:26;11.40;99.90
41678;DHT22;27364;49.026;8.712;2022-09-27T11:09:56;11.30;99.90
41678;DHT22;27364;49.026;8.712;2022-09-27T11:12:27;11.10;99.90
41678;DHT22;27364;49.026;8.712;2022-09-27T11:17:25;10.80;99.90
41678;DHT22;27364;49.026;8.712;2022-09-27T11:33:39;10.30;99.90
41678;DHT22;27364;49.026;8.712;2022-09-27T11:36:10;10.20;99.90
41678;DHT22;27364;49.026;8.712;2022-09-27T11:51:23;9.60;99.90
41678;DHT22;27364;49.026;8.712;2022-09-27T11:56:40;9.40;99.90
41678;DHT22;27364;49.026;8.712;2022-09-27T12:01:59;9.40;99.90
41678;DHT22;27364;49.026;8.712;2022-09-27T12:09:45;9.30;99.90
41678;DHT22;27364;49.026;8.712;2022-09-27T12:12:17;9.40;99.90
41678;DHT22;27364;49.026;8.712;2022-09-27T12:14:44;9.50;99.90
41678;DHT22;27364;49.026;8.712;2022-09-27T12:17:11;9.60;99.90
41678;DHT22;27364;49.026;8.712;2022-09-27T12:19:42;9.70;99.90
41678;DHT22;27364;49.026;8.712;2022-09-27T12:22:13;9.80;99.90
41678;DHT22;27364;49.026;8.712;2022-09-27T12:24:40;9.90;99.90
41678;DHT22;27364;49.026;8.712;2022-09-27T12:27:12;10.00;99.90
41678;DHT22;27364;49.026;8.712;2022-09-27T12:29:39;10.00;99.90
41678;DHT22;27364;49.026;8.712;2022-09-27T12:32:23;10.00;99.90
41678;DHT22;27364;49.026;8.712;2022-09-27T12:34:50;10.00;99.90
41678;DHT22;27364;49.026;8.712;2022-09-27T12:37:23;10.00;99.90
41678;DHT22;27364;49.026;8.712;2022-09-27T12:39:53;10.00;99.90
41678;DHT22;27364;49.026;8.712;2022-09-27T12:42:24;10.00;99.90
41678;DHT22;27364;49.026;8.712;2022-09-27T12:44:53;10.10;99.90
41678;DHT22;27364;49.026;8.712;2022-09-27T12:50:11;10.30;99.90
41678;DHT22;27364;49.026;8.712;2022-09-27T12:52:40;10.50;99.90
41678;DHT22;27364;49.026;8.712;2022-09-27T12:55:17;10.60;99.90
41678;DHT22;27364;49.026;8.712;2022-09-27T13:00:35;10.70;99.90
41678;DHT22;27364;49.026;8.712;2022-09-27T13:05:41;10.60;99.90
41678;DHT22;27364;49.026;8.712;2022-09-27T13:13:12;10.70;99.90
41678;DHT22;27364;49.026;8.712;2022-09-27T13:15:38;10.80;99.90
41678;DHT22;27364;49.026;8.712;2022-09-27T13:20:48;10.90;99.90
41678;DHT22;27364;49.026;8.712;2022-09-27T13:25:51;10.90;99.90
41678;DHT22;27364;49.026;8.712;2022-09-27T13:30:58;10.90;99.90
41678;DHT22;27364;49.026;8.712;2022-09-27T13:38:37;10.80;99.90
41678;DHT22;27364;49.026;8.712;2022-09-27T13:46:30;11.20;99.90
41678;DHT22;27364;49.026;8.712;2022-09-27T13:48:58;11.40;99.90
41678;DHT22;27364;49.026;8.712;2022-09-27T13:54:53;11.70;99.90
41678;DHT22;27364;49.026;8.712;2022-09-27T13:56:53;12.00;99.90
41678;DHT22;27364;49.026;8.712;2022-09-27T14:01:50;12.10;99.90
41678;DHT22;27364;49.026;8.712;2022-09-27T14:06:43;11.80;99.90
41678;DHT22;27364;49.026;8.712;2022-09-27T14:09:15;11.70;99.90
41678;DHT22;27364;49.026;8.712;2022-09-27T14:11:42;11.50;99.90
41678;DHT22;27364;49.026;8.712;2022-09-27T14:14:15;11.40;99.90
41678;DHT22;27364;49.026;8.712;2022-09-27T14:16:42;11.30;99.90
41678;DHT22;27364;49.026;8.712;2022-09-27T14:19:14;11.20;99.90
41678;DHT22;27364;49.026;8.712;2022-09-27T14:21:41;11.10;99.90
41678;DHT22;27364;49.026;8.712;2022-09-27T14:24:17;11.00;99.90
41678;DHT22;27364;49.026;8.712;2022-09-27T14:26:44;11.00;99.90
41678;DHT22;27364;49.026;8.712;2022-09-27T14:29:16;10.90;99.90
41678;DHT22;27364;49.026;8.712;2022-09-27T14:31:41;10.90;99.90
41678;DHT22;27364;49.026;8.712;2022-09-27T14:34:07;10.90;99.90
41678;DHT22;27364;49.026;8.712;2022-09-27T14:36:33;11.00;99.90
41678;DHT22;27364;49.026;8.712;2022-09-27T14:39:21;11.00;99.90
41678;DHT22;27364;49.026;8.712;2022-09-27T15:58:46;11.30;99.90
41678;DHT22;27364;49.026;8.712;2022-09-27T16:01:16;11.30;99.90
41678;DHT22;27364;49.026;8.712;2022-09-27T16:03:41;11.50;99.90
41678;DHT22;27364;49.026;8.712;2022-09-27T16:06:09;11.50;99.90
41678;DHT22;27364;49.026;8.712;2022-09-27T16:08:34;11.50;99.90
41678;DHT22;27364;49.026;8.712;2022-09-27T16:11:00;11.40;99.90
41678;DHT22;27364;49.026;8.712;2022-09-27T16:13:27;11.30;99.90
41678;DHT22;27364;49.026;8.712;2022-09-27T16:15:53;11.20;99.90
41678;DHT22;27364;49.026;8.712;2022-09-27T16:18:19;11.10;99.90
41678;DHT22;27364;49.026;8.712;2022-09-27T16:20:45;11.10;99.90
41678;DHT22;27364;49.026;8.712;2022-09-27T16:23:10;11.10;99.90
41678;DHT22;27364;49.026;8.712;2022-09-27T16:25:36;11.00;99.90
41678;DHT22;27364;49.026;8.712;2022-09-27T16:28:02;11.00;99.90
41678;DHT22;27364;49.026;8.712;2022-09-27T16:30:28;10.90;99.90
41678;DHT22;27364;49.026;8.712;2022-09-27T16:32:57;10.90;99.90
41678;DHT22;27364;49.026;8.712;2022-09-27T16:35:23;10.80;99.90
41678;DHT22;27364;49.026;8.712;2022-09-27T16:37:52;10.70;99.90
41678;DHT22;27364;49.026;8.712;2022-09-27T16:40:18;10.70;99.90
41678;DHT22;27364;49.026;8.712;2022-09-27T16:42:44;10.60;99.90
41678;DHT22;27364;49.026;8.712;2022-09-27T16:45:11;10.60;99.90
41678;DHT22;27364;49.026;8.712;2022-09-27T16:47:38;10.60;99.90
41678;DHT22;27364;49.026;8.712;2022-09-27T16:50:04;10.60;99.90
41678;DHT22;27364;49.026;8.712;2022-09-27T16:52:48;10.50;99.90
41678;DHT22;27364;49.026;8.712;2022-09-27T16:55:14;10.50;99.90
41678;DHT22;27364;49.026;8.712;2022-09-27T16:57:47;10.50;99.90
41678;DHT22;27364;49.026;8.712;2022-09-27T17:00:12;10.60;99.90
41678;DHT22;27364;49.026;8.712;2022-09-27T17:02:38;10.50;99.90
41678;DHT22;27364;49.026;8.712;2022-09-27T17:05:04;10.50;99.90
41678;DHT22;27364;49.026;8.712;2022-09-27T17:07:30;10.50;99.90
41678;DHT22;27364;49.026;8.712;2022-09-27T17:09:59;10.50;99.90
41678;DHT22;27364;49.026;8.712;2022-09-27T17:12:24;10.50;99.90
41678;DHT22;27364;49.026;8.712;2022-09-27T17:14:50;10.50;99.90
41678;DHT22;27364;49.026;8.712;2022-09-27T17:17:16;10.50;99.90
41678;DHT22;27364;49.026;8.712;2022-09-27T17:19:42;10.50;99.90
41678;DHT22;27364;49.026;8.712;2022-09-27T17:22:07;10.50;99.90
41678;DHT22;27364;49.026;8.712;2022-09-27T17:24:33;10.40;99.90
41678;DHT22;27364;49.026;8.712;2022-09-27T17:27:00;10.40;99.90
41678;DHT22;27364;49.026;8.712;2022-09-27T17:29:26;10.40;99.90
41678;DHT22;27364;49.026;8.712;2022-09-27T17:31:51;10.30;99.90
41678;DHT22;27364;49.026;8.712;2022-09-27T17:34:17;10.30;99.90
41678;DHT22;27364;49.026;8.712;2022-09-27T17:36:43;10.30;99.90
41678;DHT22;27364;49.026;8.712;2022-09-27T17:39:13;10.30;99.90
41678;DHT22;27364;49.026;8.712;2022-09-27T17:41:39;10.30;99.90
41678;DHT22;27364;49.026;8.712;2022-09-27T17:44:05;10.30;99.90
41678;DHT22;27364;49.026;8.712;2022-09-27T17:46:31;10.30;99.90
41678;DHT22;27364;49.026;8.712;2022-09-27T17:48:57;10.30;99.90
41678;DHT22;27364;49.026;8.712;2022-09-27T17:51:44;10.30;99.90
41678;DHT22;27364;49.026;8.712;2022-09-27T17:54:09;10.20;99.90
41678;DHT22;27364;49.026;8.712;2022-09-27T17:56:35;10.20;99.90
41678;DHT22;27364;49.026;8.712;2022-09-27T17:59:02;10.20;99.90
41678;DHT22;27364;49.026;8.712;2022-09-27T18:01:29;10.20;99.90
41678;DHT22;27364;49.026;8.712;2022-09-27T18:03:57;10.10;99.90
41678;DHT22;27364;49.026;8.712;2022-09-27T18:08:52;10.00;99.90
41678;DHT22;27364;49.026;8.712;2022-09-27T18:11:19;10.00;99.90
41678;DHT22;27364;49.026;8.712;2022-09-27T18:13:52;9.90;99.90
41678;DHT22;27364;49.026;8.712;2022-09-27T18:16:18;9.90;99.90
41678;DHT22;27364;49.026;8.712;2022-09-27T18:18:44;9.90;99.90
41678;DHT22;27364;49.026;8.712;2022-09-27T18:21:14;9.90;99.90
41678;DHT22;27364;49.026;8.712;2022-09-27T18:23:41;9.90;99.90
41678;DHT22;27364;49.026;8.712;2022-09-27T18:26:07;9.80;99.90
41678;DHT22;27364;49.026;8.712;2022-09-27T18:28:34;9.80;99.90
41678;DHT22;27364;49.026;8.712;2022-09-27T18:31:05;9.70;99.90
41678;DHT22;27364;49.026;8.712;2022-09-27T18:33:31;9.70;99.90
41678;DHT22;27364;49.026;8.712;2022-09-27T18:36:33;9.70;99.90
41678;DHT22;27364;49.026;8.712;2022-09-27T18:38:55;9.60;99.90
41678;DHT22;27364;49.026;8.712;2022-09-27T18:41:21;9.70;99.90
41678;DHT22;27364;49.026;8.712;2022-09-27T18:43:47;9.60;99.90
41678;DHT22;27364;49.026;8.712;2022-09-27T18:46:15;9.60;99.90
41678;DHT22;27364;49.026;8.712;2022-09-27T18:48:40;9.50;99.90
41678;DHT22;27364;49.026;8.712;2022-09-27T18:51:06;9.50;99.90
41678;DHT22;27364;49.026;8.712;2022-09-27T18:53:33;9.50;99.90
41678;DHT22;27364;49.026;8.712;2022-09-27T18:56:06;9.40;99.90
41678;DHT22;27364;49.026;8.712;2022-09-27T18:58:32;9.40;99.90
41678;DHT22;27364;49.026;8.712;2022-09-27T19:01:02;9.40;99.90
41678;DHT22;27364;49.026;8.712;2022-09-27T19:03:28;9.40;99.90
41678;DHT22;27364;49.026;8.712;2022-09-27T19:05:57;9.40;99.90
41678;DHT22;27364;49.026;8.712;2022-09-27T19:08:23;9.40;99.90
41678;DHT22;27364;49.026;8.712;2022-09-27T19:10:49;9.40;99.90
41678;DHT22;27364;49.026;8.712;2022-09-27T19:13:15;9.40;99.90
41678;DHT22;27364;49.026;8.712;2022-09-27T19:15:40;9.40;99.90
41678;DHT22;27364;49.026;8.712;2022-09-27T19:18:06;9.40;99.90
41678;DHT22;27364;49.026;8.712;2022-09-27T19:20:32;9.40;99.90
41678;DHT22;27364;49.026;8.712;2022-09-27T19:22:57;9.40;99.90
41678;DHT22;27364;49.026;8.712;2022-09-27T19:25:23;9.30;99.90
41678;DHT22;27364;49.026;8.712;2022-09-27T19:27:48;9.50;99.90
41678;DHT22;27364;49.026;8.712;2022-09-27T19:30:13;9.50;99.90
41678;DHT22;27364;49.026;8.712;2022-09-27T19:32:39;9.50;99.90
41678;DHT22;27364;49.026;8.712;2022-09-27T19:35:05;9.50;99.90
41678;DHT22;27364;49.026;8.712;2022-09-27T19:37:30;9.50;99.90